This is the latest recevied weather packets stored in our database for station/object YB1DDK-2. If no packets are shown the sender has not sent any weather packets the latest 10 day(s).
| Time | Temp. | Humidity | Pressure | Rain* | Wind** | Luminosity | Snow |
|---|---|---|---|---|---|---|---|
| 1777795398 | 34.44° C | 57% | 998 hPa | - | - | 0 W/m² | - |
| 1777794476 | 35° C | 56% | 998 hPa | - | - | 0 W/m² | - |
| 1777793554 | 35.56° C | 55% | 998 hPa | - | - | 0 W/m² | - |
| 1777792632 | 36.11° C | 50% | 998 hPa | - | - | 0 W/m² | - |
| 1777791684 | 36.67° C | 51% | 998 hPa | - | - | 0 W/m² | - |
| 1777790761 | 36.67° C | 50% | 998 hPa | - | - | 0 W/m² | - |
| 1777789839 | 36.67° C | 49% | 998 hPa | - | - | 0 W/m² | - |
| 1777788917 | 37.22° C | 50% | 999 hPa | - | - | 0 W/m² | - |
| 1777787995 | 36.11° C | 50% | 999 hPa | - | - | 0 W/m² | - |
| 1777787073 | 35.56° C | 53% | 999 hPa | - | - | 0 W/m² | - |
| 1777786151 | 35.56° C | 57% | 1000 hPa | - | - | 0 W/m² | - |
| 1777785230 | 35.56° C | 59% | 1000 hPa | - | - | 0 W/m² | - |
| 1777784307 | 35° C | 60% | 1000 hPa | - | - | 0 W/m² | - |
| 1777783405 | 35.56° C | 57% | 1000 hPa | - | - | 0 W/m² | - |
| 1777782483 | 35° C | 58% | 1001 hPa | - | - | 0 W/m² | - |
| 1777781561 | 35° C | 58% | 1001 hPa | - | - | 0 W/m² | - |
| 1777780639 | 35° C | 57% | 1001 hPa | - | - | 0 W/m² | - |
| 1777779717 | 34.44° C | 61% | 1001 hPa | - | - | 0 W/m² | - |
| 1777778794 | 33.89° C | 65% | 1002 hPa | - | - | 0 W/m² | - |
| 1777777873 | 34.44° C | 61% | 1002 hPa | - | - | 0 W/m² | - |
| 1777776950 | 33.89° C | 61% | 1002 hPa | - | - | 0 W/m² | - |
| 1777776028 | 33.33° C | 63% | 1002 hPa | - | - | 0 W/m² | - |
| 1777775248 | 33.33° C | 63% | 1002 hPa | - | - | 0 W/m² | - |
| 1777774326 | 32.78° C | 67% | 1002 hPa | - | - | 0 W/m² | - |
| 1777773404 | 32.22° C | 67% | 1002 hPa | - | - | 0 W/m² | - |
* Rain since midnight (hover to see other rain measurements)
** Current wind speed in m/s (hover to see current wind gust speed)